createdAt,value
2023-05-01T00:01:15.101Z,64
2023-05-01T00:04:15.268Z,64
2023-05-01T00:07:15.093Z,64
2023-05-01T00:10:15.108Z,64
2023-05-01T00:13:15.102Z,64
2023-05-01T00:16:15.126Z,64
2023-05-01T00:19:15.094Z,64
2023-05-01T00:22:15.093Z,64
2023-05-01T00:25:15.080Z,64
2023-05-01T00:28:15.110Z,64
2023-05-01T00:31:15.115Z,64
2023-05-01T00:34:15.141Z,64
2023-05-01T00:37:15.155Z,65
2023-05-01T00:40:15.189Z,65
2023-05-01T00:43:15.167Z,65
2023-05-01T00:46:15.202Z,65
2023-05-01T00:49:15.162Z,65
2023-05-01T00:52:15.156Z,65
2023-05-01T00:55:15.156Z,65
2023-05-01T00:58:15.149Z,65
2023-05-01T01:01:15.172Z,65
2023-05-01T01:04:15.166Z,65
2023-05-01T01:07:15.143Z,65
2023-05-01T01:10:15.147Z,65
2023-05-01T01:13:15.130Z,65
2023-05-01T01:16:15.203Z,65
2023-05-01T01:19:15.197Z,65
2023-05-01T01:22:15.189Z,65
2023-05-01T01:25:15.191Z,65
2023-05-01T01:28:15.189Z,65
2023-05-01T01:31:15.222Z,65
2023-05-01T01:34:15.195Z,65
2023-05-01T01:37:15.190Z,65
2023-05-01T01:40:15.191Z,65
2023-05-01T01:43:15.291Z,65
2023-05-01T01:46:15.244Z,65
2023-05-01T01:49:15.223Z,65
2023-05-01T01:52:15.192Z,65
2023-05-01T01:55:15.219Z,65
2023-05-01T01:58:15.210Z,65
2023-05-01T02:01:15.242Z,65
2023-05-01T02:04:15.284Z,66
2023-05-01T02:07:15.215Z,66
2023-05-01T02:10:15.205Z,66
2023-05-01T02:13:15.215Z,66
2023-05-01T02:19:15.213Z,66
2023-05-01T02:22:15.196Z,66
2023-05-01T02:25:15.217Z,66
2023-05-01T02:28:15.219Z,66
2023-05-01T02:31:15.244Z,66
2023-05-01T02:34:15.210Z,66
2023-05-01T02:37:15.209Z,67
2023-05-01T02:40:15.229Z,67
2023-05-01T02:43:15.198Z,67
2023-05-01T02:46:15.281Z,67
2023-05-01T02:49:15.210Z,67
2023-05-01T02:52:15.207Z,67
2023-05-01T02:55:15.212Z,67
2023-05-01T02:58:15.197Z,67
2023-05-01T03:01:15.232Z,67
2023-05-01T03:04:15.193Z,67
2023-05-01T03:07:15.188Z,67
2023-05-01T03:10:15.188Z,67
2023-05-01T03:13:15.196Z,67
2023-05-01T03:16:15.206Z,67
2023-05-01T03:19:15.182Z,67
2023-05-01T03:22:15.174Z,67
2023-05-01T03:25:15.180Z,67
2023-05-01T03:28:15.181Z,67
2023-05-01T03:31:15.186Z,67
2023-05-01T03:34:15.179Z,67
2023-05-01T03:37:15.191Z,67
2023-05-01T03:40:15.175Z,67
2023-05-01T03:43:15.174Z,67
2023-05-01T03:46:15.227Z,67
2023-05-01T03:49:15.161Z,67
2023-05-01T03:55:15.163Z,67
2023-05-01T03:58:15.174Z,68
2023-05-01T04:01:15.168Z,68
2023-05-01T04:04:15.244Z,68
2023-05-01T04:07:15.166Z,68
2023-05-01T04:10:15.155Z,68
2023-05-01T04:13:15.151Z,68
2023-05-01T04:16:15.176Z,68
2023-05-01T04:19:15.190Z,68
2023-05-01T04:22:15.164Z,68
2023-05-01T04:25:15.158Z,68
2023-05-01T04:28:15.147Z,68
2023-05-01T04:31:15.172Z,68
2023-05-01T04:34:15.151Z,68
2023-05-01T04:37:15.166Z,68
2023-05-01T04:40:15.148Z,68
2023-05-01T04:43:15.152Z,68
2023-05-01T04:46:15.186Z,68
2023-05-01T04:49:15.158Z,68
2023-05-01T04:52:15.159Z,68
2023-05-01T04:55:15.137Z,68
2023-05-01T04:58:15.153Z,68
2023-05-01T05:01:15.176Z,68
2023-05-01T05:04:15.161Z,68
2023-05-01T05:07:15.174Z,69
2023-05-01T05:10:15.166Z,69
2023-05-01T05:13:15.147Z,69
2023-05-01T05:16:15.253Z,69
2023-05-01T05:19:15.129Z,69
2023-05-01T05:22:15.138Z,69
2023-05-01T05:25:15.136Z,69
2023-05-01T05:28:15.126Z,69
2023-05-01T05:31:15.131Z,69
2023-05-01T05:34:15.134Z,69
2023-05-01T05:37:15.134Z,69
2023-05-01T05:40:15.122Z,69
2023-05-01T05:43:15.142Z,69
2023-05-01T05:46:15.144Z,69
2023-05-01T05:49:15.135Z,69
2023-05-01T05:52:15.131Z,69
2023-05-01T05:55:15.141Z,69
2023-05-01T05:58:15.134Z,69
2023-05-01T06:01:15.120Z,69
2023-05-01T06:04:15.130Z,69
2023-05-01T06:07:15.124Z,69
2023-05-01T06:10:15.121Z,69
2023-05-01T06:13:15.133Z,69
2023-05-01T06:16:15.205Z,69
2023-05-01T06:19:15.140Z,69
2023-05-01T06:22:15.132Z,69
2023-05-01T06:25:15.127Z,69
2023-05-01T06:28:15.129Z,69
2023-05-01T06:31:15.286Z,69
2023-05-01T06:34:15.126Z,69
2023-05-01T06:37:15.116Z,69
2023-05-01T06:40:15.136Z,68
2023-05-01T06:43:15.120Z,68
2023-05-01T06:46:15.145Z,68
2023-05-01T06:49:15.109Z,68
2023-05-01T06:52:15.114Z,68
2023-05-01T06:55:15.126Z,68
2023-05-01T06:58:23.233Z,68
2023-05-01T07:01:15.138Z,68
2023-05-01T07:04:15.099Z,68
2023-05-01T07:07:15.127Z,68
2023-05-01T07:10:15.106Z,68
2023-05-01T07:13:15.117Z,68
2023-05-01T07:16:15.146Z,68
2023-05-01T07:19:15.115Z,67
2023-05-01T07:22:15.102Z,67
2023-05-01T07:25:15.106Z,67
2023-05-01T07:28:15.844Z,67
2023-05-01T07:31:15.112Z,67
2023-05-01T07:34:15.116Z,67
2023-05-01T07:37:15.106Z,67
2023-05-01T07:40:15.094Z,67
2023-05-01T07:46:15.118Z,67
2023-05-01T07:49:15.123Z,67
2023-05-01T07:52:15.108Z,67
2023-05-01T07:55:15.093Z,66
2023-05-01T07:58:15.096Z,66
2023-05-01T08:01:15.105Z,66
2023-05-01T08:04:15.173Z,66
2023-05-01T08:07:15.111Z,66
2023-05-01T08:10:15.092Z,65
2023-05-01T08:13:15.090Z,65
2023-05-01T08:16:15.129Z,65
2023-05-01T08:19:15.093Z,65
2023-05-01T08:22:15.089Z,65
2023-05-01T08:25:15.092Z,64
2023-05-01T08:28:15.116Z,64
2023-05-01T08:31:15.111Z,64
2023-05-01T08:34:15.085Z,64
2023-05-01T08:37:15.086Z,64
2023-05-01T08:40:15.098Z,64
2023-05-01T08:43:15.089Z,64
2023-05-01T08:49:15.109Z,63
2023-05-01T08:52:15.086Z,63
2023-05-01T08:55:15.113Z,63
2023-05-01T08:58:15.121Z,63
2023-05-01T09:01:15.113Z,63
2023-05-01T09:04:15.119Z,63
2023-05-01T09:07:15.073Z,63
2023-05-01T09:10:15.073Z,63
2023-05-01T09:13:15.073Z,62
2023-05-01T09:16:15.077Z,62
2023-05-01T09:19:15.068Z,63
2023-05-01T09:22:15.076Z,62
2023-05-01T09:25:15.075Z,62
2023-05-01T09:28:15.085Z,62
2023-05-01T09:31:15.066Z,62
2023-05-01T09:34:15.067Z,62
2023-05-01T09:37:15.068Z,62
2023-05-01T09:40:15.076Z,62
2023-05-01T09:43:15.068Z,62
2023-05-01T09:46:15.167Z,62
2023-05-01T09:49:15.080Z,61
2023-05-01T09:52:15.064Z,61
2023-05-01T09:55:15.058Z,61
2023-05-01T09:58:15.058Z,61
2023-05-01T10:01:15.171Z,61
2023-05-01T10:04:15.054Z,61
2023-05-01T10:07:15.075Z,61
2023-05-01T10:10:15.193Z,61
2023-05-01T10:13:15.057Z,61
2023-05-01T10:16:15.117Z,61
2023-05-01T10:19:15.070Z,61
2023-05-01T10:22:15.060Z,61
2023-05-01T10:25:15.213Z,61
2023-05-01T10:31:15.090Z,61
2023-05-01T10:34:15.051Z,61
2023-05-01T10:37:15.053Z,61
2023-05-01T10:40:15.273Z,60
2023-05-01T10:43:15.069Z,60
2023-05-01T10:46:15.108Z,60
2023-05-01T10:49:15.055Z,60
2023-05-01T10:52:15.044Z,60
2023-05-01T10:55:15.345Z,60
2023-05-01T10:58:15.060Z,59
2023-05-01T11:01:15.086Z,59
2023-05-01T11:04:15.041Z,59
2023-05-01T11:07:15.072Z,59
2023-05-01T11:10:15.113Z,59
2023-05-01T11:13:15.054Z,59
2023-05-01T11:16:15.076Z,58
2023-05-01T11:19:15.057Z,58
2023-05-01T11:22:15.047Z,58
2023-05-01T11:25:15.047Z,58
2023-05-01T11:28:15.060Z,58
2023-05-01T11:31:15.085Z,57
2023-05-01T11:34:15.054Z,57
2023-05-01T11:37:15.058Z,57
2023-05-01T11:40:15.054Z,57
2023-05-01T11:43:15.080Z,57
2023-05-01T11:46:15.101Z,57
2023-05-01T11:49:15.049Z,57
2023-05-01T11:52:15.046Z,57
2023-05-01T11:55:15.041Z,56
2023-05-01T11:58:15.034Z,56
2023-05-01T12:01:15.155Z,56
2023-05-01T12:04:15.131Z,56
2023-05-01T12:07:15.044Z,56
2023-05-01T12:10:15.043Z,56
2023-05-01T12:13:15.062Z,55
2023-05-01T12:16:15.036Z,55
2023-05-01T12:19:15.048Z,55
2023-05-01T12:22:15.072Z,55
2023-05-01T12:25:15.036Z,55
2023-05-01T12:28:15.039Z,55
2023-05-01T12:31:15.048Z,54
2023-05-01T12:34:15.046Z,54
2023-05-01T12:37:15.025Z,54
2023-05-01T12:40:15.031Z,54
2023-05-01T12:43:15.024Z,54
2023-05-01T12:46:15.059Z,53
2023-05-01T12:49:15.020Z,53
2023-05-01T12:52:15.021Z,53
2023-05-01T12:55:15.018Z,53
2023-05-01T12:58:15.014Z,53
2023-05-01T13:01:15.067Z,53
2023-05-01T13:04:15.045Z,53
2023-05-01T13:07:15.162Z,53
2023-05-01T13:10:15.013Z,53
2023-05-01T13:13:15.108Z,53
2023-05-01T13:16:15.059Z,53
2023-05-01T13:22:15.023Z,53
2023-05-01T13:25:15.013Z,53
2023-05-01T13:28:15.009Z,53
2023-05-01T13:31:15.070Z,53
2023-05-01T13:34:15.043Z,53
2023-05-01T13:37:15.007Z,53
2023-05-01T13:40:15.015Z,53
2023-05-01T13:43:15.015Z,52
2023-05-01T13:46:15.034Z,52
2023-05-01T13:49:14.998Z,53
2023-05-01T13:52:15.010Z,53
2023-05-01T13:55:15.015Z,53
2023-05-01T13:58:15.013Z,53
2023-05-01T14:01:15.083Z,53
2023-05-01T14:04:15.007Z,53
2023-05-01T14:07:14.996Z,53
2023-05-01T14:10:15.014Z,53
2023-05-01T14:13:15.006Z,53
2023-05-01T14:16:15.040Z,53
2023-05-01T14:19:15.000Z,53
2023-05-01T14:22:14.992Z,53
2023-05-01T14:28:15.000Z,53
2023-05-01T14:31:14.995Z,53
2023-05-01T14:34:14.992Z,53
2023-05-01T14:37:15.047Z,53
2023-05-01T14:40:14.990Z,53
2023-05-01T14:43:14.998Z,52
2023-05-01T14:46:15.010Z,53
2023-05-01T14:49:14.999Z,53
2023-05-01T14:52:14.994Z,53
2023-05-01T14:55:14.995Z,53
2023-05-01T14:58:14.990Z,53
2023-05-01T15:04:15.073Z,53
2023-05-01T15:07:15.001Z,53
2023-05-01T15:10:14.991Z,53
2023-05-01T15:13:14.992Z,53
2023-05-01T15:16:15.020Z,53
2023-05-01T15:19:15.001Z,53
2023-05-01T15:22:14.985Z,53
2023-05-01T15:25:14.987Z,53
2023-05-01T15:28:15.009Z,53
2023-05-01T15:31:15.015Z,53
2023-05-01T15:34:14.991Z,53
2023-05-01T15:37:15.002Z,53
2023-05-01T15:40:14.994Z,53
2023-05-01T15:43:14.998Z,53
2023-05-01T15:46:15.024Z,53
2023-05-01T15:49:14.982Z,53
2023-05-01T15:52:14.988Z,53
2023-05-01T15:55:14.976Z,53
2023-05-01T15:58:14.980Z,53
2023-05-01T16:01:15.000Z,53
2023-05-01T16:07:14.977Z,53
2023-05-01T16:10:14.964Z,53
2023-05-01T16:13:14.985Z,53
2023-05-01T16:16:14.989Z,53
2023-05-01T16:19:14.977Z,53
2023-05-01T16:22:14.975Z,53
2023-05-01T16:25:14.962Z,53
2023-05-01T16:28:14.971Z,53
2023-05-01T16:31:26.417Z,53
2023-05-01T16:34:14.964Z,53
2023-05-01T16:37:14.963Z,53
2023-05-01T16:40:14.964Z,53
2023-05-01T16:43:14.944Z,53
2023-05-01T16:46:14.998Z,53
2023-05-01T16:49:14.959Z,53
2023-05-01T16:52:14.941Z,53
2023-05-01T16:55:14.952Z,53
2023-05-01T16:58:14.956Z,53
2023-05-01T17:01:15.027Z,53
2023-05-01T17:04:14.973Z,53
2023-05-01T17:10:14.961Z,54
2023-05-01T17:13:14.945Z,54
2023-05-01T17:16:15.018Z,54
2023-05-01T17:19:14.949Z,54
2023-05-01T17:22:14.942Z,54
2023-05-01T17:25:14.956Z,54
2023-05-01T17:28:14.953Z,54
2023-05-01T17:31:16.675Z,55
2023-05-01T17:34:14.938Z,55
2023-05-01T17:37:14.932Z,55
2023-05-01T17:40:14.951Z,55
2023-05-01T17:43:14.959Z,55
2023-05-01T17:46:14.985Z,55
2023-05-01T17:49:14.945Z,55
2023-05-01T17:52:14.967Z,55
2023-05-01T17:55:17.315Z,56
2023-05-01T17:58:14.945Z,56
2023-05-01T18:01:14.977Z,56
2023-05-01T18:04:15.027Z,56
2023-05-01T18:07:14.932Z,57
2023-05-01T18:10:14.930Z,57
2023-05-01T18:13:14.925Z,57
2023-05-01T18:16:14.949Z,57
2023-05-01T18:19:14.922Z,57
2023-05-01T18:22:14.933Z,57
2023-05-01T18:25:14.934Z,57
2023-05-01T18:28:14.927Z,57
2023-05-01T18:31:14.945Z,57
2023-05-01T18:34:14.962Z,57
2023-05-01T18:37:14.925Z,57
2023-05-01T18:40:14.949Z,57
2023-05-01T18:43:14.937Z,58
2023-05-01T18:46:14.932Z,58
2023-05-01T18:49:14.936Z,58
2023-05-01T18:52:14.938Z,58
2023-05-01T18:55:14.937Z,58
2023-05-01T18:58:14.936Z,58
2023-05-01T19:01:14.980Z,58
2023-05-01T19:04:14.983Z,58
2023-05-01T19:07:14.924Z,58
2023-05-01T19:10:14.991Z,58
2023-05-01T19:13:14.922Z,58
2023-05-01T19:16:14.983Z,58
2023-05-01T19:19:14.934Z,58
2023-05-01T19:22:14.918Z,59
2023-05-01T19:25:14.911Z,59
2023-05-01T19:28:14.905Z,59
2023-05-01T19:31:14.996Z,59
2023-05-01T19:34:14.913Z,59
2023-05-01T19:37:14.910Z,59
2023-05-01T19:40:14.911Z,59
2023-05-01T19:43:14.915Z,59
2023-05-01T19:46:14.947Z,59
2023-05-01T19:49:14.906Z,59
2023-05-01T19:52:14.914Z,59
2023-05-01T19:55:14.966Z,59
2023-05-01T19:58:14.902Z,59
2023-05-01T20:01:14.911Z,59
2023-05-01T20:04:14.926Z,59
2023-05-01T20:07:15.901Z,59
2023-05-01T20:10:14.903Z,59
2023-05-01T20:13:14.906Z,59
2023-05-01T20:16:14.947Z,59
2023-05-01T20:22:14.904Z,59
2023-05-01T20:25:14.906Z,59
2023-05-01T20:28:15.059Z,59
2023-05-01T20:31:14.926Z,59
2023-05-01T20:34:14.933Z,60
2023-05-01T20:37:14.925Z,60
2023-05-01T20:40:14.919Z,60
2023-05-01T20:43:14.920Z,60
2023-05-01T20:46:14.958Z,60
2023-05-01T20:49:16.132Z,60
2023-05-01T20:52:14.906Z,60
2023-05-01T20:55:14.913Z,60
2023-05-01T20:58:14.901Z,60
2023-05-01T21:01:14.947Z,60
2023-05-01T21:04:15.015Z,60
2023-05-01T21:07:14.901Z,61
2023-05-01T21:10:14.910Z,61
2023-05-01T21:13:14.955Z,61
2023-05-01T21:16:14.922Z,61
2023-05-01T21:19:14.923Z,61
2023-05-01T21:22:14.913Z,61
2023-05-01T21:25:14.906Z,61
2023-05-01T21:28:14.914Z,61
2023-05-01T21:31:14.929Z,61
2023-05-01T21:34:14.910Z,61
2023-05-01T21:37:14.908Z,61
2023-05-01T21:40:15.015Z,61
2023-05-01T21:43:14.918Z,61
2023-05-01T21:46:14.897Z,61
2023-05-01T21:49:14.909Z,61
2023-05-01T21:52:14.895Z,61
2023-05-01T21:55:14.902Z,61
2023-05-01T21:58:14.898Z,61
2023-05-01T22:01:14.898Z,61
2023-05-01T22:04:14.952Z,61
2023-05-01T22:07:14.889Z,61
2023-05-01T22:10:14.889Z,61
2023-05-01T22:13:14.897Z,61
2023-05-01T22:16:14.900Z,62
2023-05-01T22:19:14.887Z,62
2023-05-01T22:22:14.896Z,62
2023-05-01T22:25:14.883Z,62
2023-05-01T22:28:16.566Z,62
2023-05-01T22:31:14.878Z,62
2023-05-01T22:34:14.906Z,62
2023-05-01T22:37:14.875Z,62
2023-05-01T22:40:14.878Z,62
2023-05-01T22:43:14.890Z,62
2023-05-01T22:46:14.925Z,62
2023-05-01T22:49:14.889Z,62
2023-05-01T22:52:14.877Z,62
2023-05-01T22:55:15.026Z,63
2023-05-01T22:58:14.892Z,63
2023-05-01T23:01:14.898Z,63
2023-05-01T23:04:14.997Z,63
2023-05-01T23:07:14.869Z,63
2023-05-01T23:10:14.888Z,63
2023-05-01T23:13:14.885Z,63
2023-05-01T23:16:14.898Z,63
2023-05-01T23:19:14.873Z,63
2023-05-01T23:22:14.876Z,63
2023-05-01T23:25:14.875Z,63
2023-05-01T23:28:14.877Z,63
2023-05-01T23:31:14.892Z,64
2023-05-01T23:34:16.101Z,64
2023-05-01T23:37:15.409Z,64
2023-05-01T23:40:15.409Z,64
2023-05-01T23:43:15.406Z,64
2023-05-01T23:46:15.426Z,64
2023-05-01T23:49:15.407Z,64
2023-05-01T23:52:15.403Z,64
2023-05-01T23:55:15.400Z,64
2023-05-01T23:58:15.378Z,64
